sensor_id;sensor_type;location;lat;lon;timestamp;P1;durP1;ratioP1;P2;durP2;ratioP2
16975;SDS011;8604;48.148;-1.786;2023-04-01T00:01:16;16.60;;;3.20;;
16975;SDS011;8604;48.148;-1.786;2023-04-01T00:03:46;14.57;;;3.60;;
16975;SDS011;8604;48.148;-1.786;2023-04-01T00:06:15;16.97;;;3.57;;
16975;SDS011;8604;48.148;-1.786;2023-04-01T00:08:45;15.83;;;3.27;;
16975;SDS011;8604;48.148;-1.786;2023-04-01T00:11:14;17.87;;;4.17;;
16975;SDS011;8604;48.148;-1.786;2023-04-01T00:13:46;16.97;;;4.13;;
16975;SDS011;8604;48.148;-1.786;2023-04-01T00:16:15;15.10;;;3.80;;
16975;SDS011;8604;48.148;-1.786;2023-04-01T00:18:49;19.27;;;4.33;;
16975;SDS011;8604;48.148;-1.786;2023-04-01T00:21:19;18.97;;;4.03;;
16975;SDS011;8604;48.148;-1.786;2023-04-01T00:23:48;17.90;;;4.20;;
16975;SDS011;8604;48.148;-1.786;2023-04-01T00:26:17;18.37;;;4.17;;
16975;SDS011;8604;48.148;-1.786;2023-04-01T00:28:48;18.80;;;3.57;;
16975;SDS011;8604;48.148;-1.786;2023-04-01T00:31:17;16.20;;;4.17;;
16975;SDS011;8604;48.148;-1.786;2023-04-01T00:33:47;24.80;;;4.43;;
16975;SDS011;8604;48.148;-1.786;2023-04-01T00:36:18;17.43;;;3.60;;
16975;SDS011;8604;48.148;-1.786;2023-04-01T00:38:49;13.83;;;3.47;;
16975;SDS011;8604;48.148;-1.786;2023-04-01T00:41:19;17.70;;;3.87;;
16975;SDS011;8604;48.148;-1.786;2023-04-01T00:43:49;21.93;;;4.17;;
16975;SDS011;8604;48.148;-1.786;2023-04-01T00:46:20;15.20;;;3.67;;
16975;SDS011;8604;48.148;-1.786;2023-04-01T00:48:50;17.90;;;3.87;;
16975;SDS011;8604;48.148;-1.786;2023-04-01T00:51:23;18.07;;;4.13;;
16975;SDS011;8604;48.148;-1.786;2023-04-01T00:53:57;16.00;;;3.50;;
16975;SDS011;8604;48.148;-1.786;2023-04-01T00:56:32;21.67;;;4.10;;
16975;SDS011;8604;48.148;-1.786;2023-04-01T00:59:04;18.73;;;3.97;;
16975;SDS011;8604;48.148;-1.786;2023-04-01T01:01:37;20.57;;;4.37;;
16975;SDS011;8604;48.148;-1.786;2023-04-01T01:04:06;19.33;;;4.30;;
16975;SDS011;8604;48.148;-1.786;2023-04-01T01:06:39;17.70;;;3.53;;
16975;SDS011;8604;48.148;-1.786;2023-04-01T01:09:18;13.83;;;3.40;;
16975;SDS011;8604;48.148;-1.786;2023-04-01T01:11:54;17.03;;;3.63;;
16975;SDS011;8604;48.148;-1.786;2023-04-01T01:14:34;17.70;;;3.60;;
16975;SDS011;8604;48.148;-1.786;2023-04-01T01:17:13;16.13;;;4.00;;
16975;SDS011;8604;48.148;-1.786;2023-04-01T01:22:57;17.93;;;3.97;;
16975;SDS011;8604;48.148;-1.786;2023-04-01T01:25:54;15.23;;;3.70;;
16975;SDS011;8604;48.148;-1.786;2023-04-01T01:28:39;15.40;;;2.90;;
16975;SDS011;8604;48.148;-1.786;2023-04-01T01:31:15;14.37;;;3.23;;
16975;SDS011;8604;48.148;-1.786;2023-04-01T01:33:55;17.00;;;3.50;;
16975;SDS011;8604;48.148;-1.786;2023-04-01T01:36:38;15.03;;;3.27;;
16975;SDS011;8604;48.148;-1.786;2023-04-01T01:39:11;16.50;;;2.87;;
16975;SDS011;8604;48.148;-1.786;2023-04-01T01:41:42;13.93;;;3.17;;
16975;SDS011;8604;48.148;-1.786;2023-04-01T01:44:13;17.07;;;3.40;;
16975;SDS011;8604;48.148;-1.786;2023-04-01T01:46:43;16.07;;;3.27;;
16975;SDS011;8604;48.148;-1.786;2023-04-01T01:49:13;16.17;;;2.80;;
16975;SDS011;8604;48.148;-1.786;2023-04-01T01:51:44;12.37;;;2.80;;
16975;SDS011;8604;48.148;-1.786;2023-04-01T01:54:13;14.27;;;3.20;;
16975;SDS011;8604;48.148;-1.786;2023-04-01T01:56:42;12.47;;;2.77;;
16975;SDS011;8604;48.148;-1.786;2023-04-01T01:59:17;14.53;;;3.03;;
16975;SDS011;8604;48.148;-1.786;2023-04-01T02:01:50;11.63;;;3.10;;
16975;SDS011;8604;48.148;-1.786;2023-04-01T02:04:24;13.53;;;2.80;;
16975;SDS011;8604;48.148;-1.786;2023-04-01T02:06:56;17.00;;;3.00;;
16975;SDS011;8604;48.148;-1.786;2023-04-01T02:09:29;15.83;;;3.27;;
16975;SDS011;8604;48.148;-1.786;2023-04-01T02:12:02;15.07;;;3.00;;
16975;SDS011;8604;48.148;-1.786;2023-04-01T02:14:39;12.63;;;2.90;;
16975;SDS011;8604;48.148;-1.786;2023-04-01T02:17:12;11.17;;;2.40;;
16975;SDS011;8604;48.148;-1.786;2023-04-01T02:19:46;11.10;;;2.80;;
16975;SDS011;8604;48.148;-1.786;2023-04-01T02:22:20;12.60;;;2.67;;
16975;SDS011;8604;48.148;-1.786;2023-04-01T02:24:53;8.53;;;2.50;;
16975;SDS011;8604;48.148;-1.786;2023-04-01T02:27:25;12.93;;;2.70;;
16975;SDS011;8604;48.148;-1.786;2023-04-01T02:29:54;15.70;;;3.00;;
16975;SDS011;8604;48.148;-1.786;2023-04-01T02:32:22;9.73;;;2.47;;
16975;SDS011;8604;48.148;-1.786;2023-04-01T02:34:53;13.33;;;3.03;;
16975;SDS011;8604;48.148;-1.786;2023-04-01T02:37:23;9.43;;;3.03;;
16975;SDS011;8604;48.148;-1.786;2023-04-01T02:39:52;13.63;;;2.83;;
16975;SDS011;8604;48.148;-1.786;2023-04-01T02:42:20;13.70;;;2.80;;
16975;SDS011;8604;48.148;-1.786;2023-04-01T02:44:48;9.20;;;2.70;;
16975;SDS011;8604;48.148;-1.786;2023-04-01T02:47:17;9.63;;;2.20;;
16975;SDS011;8604;48.148;-1.786;2023-04-01T02:49:46;12.67;;;2.80;;
16975;SDS011;8604;48.148;-1.786;2023-04-01T02:52:14;12.03;;;2.80;;
16975;SDS011;8604;48.148;-1.786;2023-04-01T02:54:44;14.63;;;2.77;;
16975;SDS011;8604;48.148;-1.786;2023-04-01T02:57:12;9.73;;;2.60;;
16975;SDS011;8604;48.148;-1.786;2023-04-01T02:59:41;12.57;;;2.43;;
16975;SDS011;8604;48.148;-1.786;2023-04-01T03:02:09;11.57;;;2.67;;
16975;SDS011;8604;48.148;-1.786;2023-04-01T03:04:38;12.00;;;2.57;;
16975;SDS011;8604;48.148;-1.786;2023-04-01T03:07:06;10.23;;;2.47;;
16975;SDS011;8604;48.148;-1.786;2023-04-01T03:09:36;9.77;;;2.77;;
16975;SDS011;8604;48.148;-1.786;2023-04-01T03:12:06;9.20;;;2.43;;
16975;SDS011;8604;48.148;-1.786;2023-04-01T03:14:45;12.23;;;2.53;;
16975;SDS011;8604;48.148;-1.786;2023-04-01T03:17:13;11.57;;;2.10;;
16975;SDS011;8604;48.148;-1.786;2023-04-01T03:19:42;11.63;;;2.50;;
16975;SDS011;8604;48.148;-1.786;2023-04-01T03:22:11;9.07;;;2.30;;
16975;SDS011;8604;48.148;-1.786;2023-04-01T03:24:40;9.37;;;2.30;;
16975;SDS011;8604;48.148;-1.786;2023-04-01T03:27:10;7.53;;;2.40;;
16975;SDS011;8604;48.148;-1.786;2023-04-01T03:29:39;8.07;;;2.30;;
16975;SDS011;8604;48.148;-1.786;2023-04-01T03:32:08;14.83;;;3.00;;
16975;SDS011;8604;48.148;-1.786;2023-04-01T03:34:37;10.60;;;2.60;;
16975;SDS011;8604;48.148;-1.786;2023-04-01T03:37:05;12.47;;;2.67;;
16975;SDS011;8604;48.148;-1.786;2023-04-01T03:39:34;12.07;;;2.60;;
16975;SDS011;8604;48.148;-1.786;2023-04-01T03:42:02;13.67;;;2.40;;
16975;SDS011;8604;48.148;-1.786;2023-04-01T03:44:34;10.57;;;2.57;;
16975;SDS011;8604;48.148;-1.786;2023-04-01T03:47:03;12.40;;;2.57;;
16975;SDS011;8604;48.148;-1.786;2023-04-01T03:49:32;13.77;;;3.20;;
16975;SDS011;8604;48.148;-1.786;2023-04-01T03:52:01;13.43;;;2.93;;
16975;SDS011;8604;48.148;-1.786;2023-04-01T03:54:30;14.93;;;2.70;;
16975;SDS011;8604;48.148;-1.786;2023-04-01T03:56:59;13.87;;;3.10;;
16975;SDS011;8604;48.148;-1.786;2023-04-01T03:59:28;12.03;;;3.00;;
16975;SDS011;8604;48.148;-1.786;2023-04-01T04:01:58;11.37;;;2.70;;
16975;SDS011;8604;48.148;-1.786;2023-04-01T04:04:27;11.10;;;2.80;;
16975;SDS011;8604;48.148;-1.786;2023-04-01T04:06:58;11.87;;;2.57;;
16975;SDS011;8604;48.148;-1.786;2023-04-01T04:09:43;13.43;;;2.67;;
16975;SDS011;8604;48.148;-1.786;2023-04-01T04:12:12;10.87;;;2.50;;
16975;SDS011;8604;48.148;-1.786;2023-04-01T04:14:40;10.93;;;2.57;;
16975;SDS011;8604;48.148;-1.786;2023-04-01T04:17:11;11.27;;;2.70;;
16975;SDS011;8604;48.148;-1.786;2023-04-01T04:19:43;13.70;;;2.70;;
16975;SDS011;8604;48.148;-1.786;2023-04-01T04:22:12;11.60;;;2.60;;
16975;SDS011;8604;48.148;-1.786;2023-04-01T04:24:44;11.17;;;2.30;;
16975;SDS011;8604;48.148;-1.786;2023-04-01T04:27:13;13.30;;;2.57;;
16975;SDS011;8604;48.148;-1.786;2023-04-01T04:29:51;11.73;;;2.67;;
16975;SDS011;8604;48.148;-1.786;2023-04-01T04:32:21;16.07;;;3.30;;
16975;SDS011;8604;48.148;-1.786;2023-04-01T04:34:49;12.17;;;2.67;;
16975;SDS011;8604;48.148;-1.786;2023-04-01T04:37:19;12.37;;;2.67;;
16975;SDS011;8604;48.148;-1.786;2023-04-01T04:39:47;11.40;;;2.80;;
16975;SDS011;8604;48.148;-1.786;2023-04-01T04:42:16;15.60;;;2.60;;
16975;SDS011;8604;48.148;-1.786;2023-04-01T04:44:45;11.27;;;2.40;;
16975;SDS011;8604;48.148;-1.786;2023-04-01T04:47:13;10.07;;;2.50;;
16975;SDS011;8604;48.148;-1.786;2023-04-01T04:49:47;11.50;;;2.87;;
16975;SDS011;8604;48.148;-1.786;2023-04-01T04:52:15;9.43;;;2.37;;
16975;SDS011;8604;48.148;-1.786;2023-04-01T04:54:44;12.53;;;2.43;;
16975;SDS011;8604;48.148;-1.786;2023-04-01T04:57:15;10.40;;;2.40;;
16975;SDS011;8604;48.148;-1.786;2023-04-01T04:59:51;13.67;;;2.50;;
16975;SDS011;8604;48.148;-1.786;2023-04-01T05:02:31;12.80;;;2.60;;
16975;SDS011;8604;48.148;-1.786;2023-04-01T05:05:01;13.00;;;2.70;;
16975;SDS011;8604;48.148;-1.786;2023-04-01T05:07:31;15.97;;;2.63;;
16975;SDS011;8604;48.148;-1.786;2023-04-01T05:10:00;12.13;;;2.80;;
16975;SDS011;8604;48.148;-1.786;2023-04-01T05:12:29;10.33;;;2.40;;
16975;SDS011;8604;48.148;-1.786;2023-04-01T05:15:01;12.47;;;2.60;;
16975;SDS011;8604;48.148;-1.786;2023-04-01T05:17:31;13.77;;;2.53;;
16975;SDS011;8604;48.148;-1.786;2023-04-01T05:19:59;12.13;;;2.37;;
16975;SDS011;8604;48.148;-1.786;2023-04-01T05:22:29;11.07;;;2.40;;
16975;SDS011;8604;48.148;-1.786;2023-04-01T05:24:58;10.70;;;2.33;;
16975;SDS011;8604;48.148;-1.786;2023-04-01T05:27:27;10.00;;;2.20;;
16975;SDS011;8604;48.148;-1.786;2023-04-01T05:29:56;10.30;;;2.30;;
16975;SDS011;8604;48.148;-1.786;2023-04-01T05:33:00;11.80;;;2.27;;
16975;SDS011;8604;48.148;-1.786;2023-04-01T05:35:30;9.57;;;2.60;;
16975;SDS011;8604;48.148;-1.786;2023-04-01T05:37:59;12.37;;;2.23;;
16975;SDS011;8604;48.148;-1.786;2023-04-01T05:40:28;12.43;;;2.57;;
16975;SDS011;8604;48.148;-1.786;2023-04-01T05:42:57;10.80;;;2.53;;
16975;SDS011;8604;48.148;-1.786;2023-04-01T07:00:27;16.03;;;2.70;;
16975;SDS011;8604;48.148;-1.786;2023-04-01T07:03:04;16.03;;;2.77;;
16975;SDS011;8604;48.148;-1.786;2023-04-01T07:05:41;20.50;;;3.43;;
16975;SDS011;8604;48.148;-1.786;2023-04-01T07:08:20;14.03;;;3.13;;
16975;SDS011;8604;48.148;-1.786;2023-04-01T07:10:53;14.07;;;2.77;;
16975;SDS011;8604;48.148;-1.786;2023-04-01T07:13:46;14.40;;;2.93;;
16975;SDS011;8604;48.148;-1.786;2023-04-01T07:16:21;14.57;;;2.77;;
16975;SDS011;8604;48.148;-1.786;2023-04-01T07:18:58;16.50;;;3.23;;
16975;SDS011;8604;48.148;-1.786;2023-04-01T07:21:58;15.33;;;3.27;;
16975;SDS011;8604;48.148;-1.786;2023-04-01T07:24:54;14.93;;;3.20;;
16975;SDS011;8604;48.148;-1.786;2023-04-01T07:27:33;15.50;;;2.83;;
16975;SDS011;8604;48.148;-1.786;2023-04-01T07:30:13;15.60;;;3.43;;
16975;SDS011;8604;48.148;-1.786;2023-04-01T07:32:58;14.07;;;3.03;;
16975;SDS011;8604;48.148;-1.786;2023-04-01T07:35:35;15.10;;;2.67;;
16975;SDS011;8604;48.148;-1.786;2023-04-01T07:38:12;14.07;;;3.33;;
16975;SDS011;8604;48.148;-1.786;2023-04-01T07:40:53;14.10;;;3.40;;
16975;SDS011;8604;48.148;-1.786;2023-04-01T07:43:37;14.07;;;3.03;;
16975;SDS011;8604;48.148;-1.786;2023-04-01T07:46:33;13.67;;;2.80;;
16975;SDS011;8604;48.148;-1.786;2023-04-01T07:49:24;13.90;;;3.00;;
16975;SDS011;8604;48.148;-1.786;2023-04-01T07:52:12;13.30;;;2.93;;
16975;SDS011;8604;48.148;-1.786;2023-04-01T07:54:59;12.53;;;3.00;;
16975;SDS011;8604;48.148;-1.786;2023-04-01T07:57:43;15.83;;;3.37;;
16975;SDS011;8604;48.148;-1.786;2023-04-01T08:00:45;14.47;;;3.10;;
16975;SDS011;8604;48.148;-1.786;2023-04-01T08:04:10;14.17;;;3.10;;
16975;SDS011;8604;48.148;-1.786;2023-04-01T08:10:04;12.27;;;3.13;;
16975;SDS011;8604;48.148;-1.786;2023-04-01T08:13:44;14.80;;;3.10;;
16975;SDS011;8604;48.148;-1.786;2023-04-01T08:16:45;13.70;;;3.10;;
16975;SDS011;8604;48.148;-1.786;2023-04-01T08:22:27;15.13;;;3.47;;
16975;SDS011;8604;48.148;-1.786;2023-04-01T08:25:09;13.00;;;3.07;;
16975;SDS011;8604;48.148;-1.786;2023-04-01T08:27:45;12.73;;;2.77;;
16975;SDS011;8604;48.148;-1.786;2023-04-01T08:30:21;9.83;;;2.50;;
16975;SDS011;8604;48.148;-1.786;2023-04-01T08:33:13;11.53;;;3.00;;
16975;SDS011;8604;48.148;-1.786;2023-04-01T08:36:01;10.73;;;2.93;;
16975;SDS011;8604;48.148;-1.786;2023-04-01T08:38:36;12.23;;;3.03;;
16975;SDS011;8604;48.148;-1.786;2023-04-01T13:16:58;11.27;;;2.60;;
16975;SDS011;8604;48.148;-1.786;2023-04-01T13:19:49;9.27;;;2.13;;
16975;SDS011;8604;48.148;-1.786;2023-04-01T13:22:35;12.03;;;2.53;;
16975;SDS011;8604;48.148;-1.786;2023-04-01T15:14:53;10.67;;;2.73;;
16975;SDS011;8604;48.148;-1.786;2023-04-01T15:17:41;11.03;;;2.40;;
16975;SDS011;8604;48.148;-1.786;2023-04-01T15:20:22;7.33;;;2.00;;
16975;SDS011;8604;48.148;-1.786;2023-04-01T15:27:32;8.23;;;2.30;;
16975;SDS011;8604;48.148;-1.786;2023-04-01T15:33:16;13.30;;;2.30;;
16975;SDS011;8604;48.148;-1.786;2023-04-01T15:36:47;9.73;;;2.47;;
16975;SDS011;8604;48.148;-1.786;2023-04-01T15:39:31;9.77;;;2.30;;
16975;SDS011;8604;48.148;-1.786;2023-04-01T19:35:10;12.33;;;2.60;;
16975;SDS011;8604;48.148;-1.786;2023-04-01T19:41:22;8.80;;;2.90;;
16975;SDS011;8604;48.148;-1.786;2023-04-01T19:44:04;8.47;;;2.33;;
16975;SDS011;8604;48.148;-1.786;2023-04-01T19:46:44;9.23;;;2.77;;
16975;SDS011;8604;48.148;-1.786;2023-04-01T19:52:09;10.73;;;2.53;;
16975;SDS011;8604;48.148;-1.786;2023-04-01T19:54:45;10.97;;;2.17;;
16975;SDS011;8604;48.148;-1.786;2023-04-01T19:57:22;8.70;;;2.10;;
16975;SDS011;8604;48.148;-1.786;2023-04-01T20:00:00;9.00;;;2.00;;
16975;SDS011;8604;48.148;-1.786;2023-04-01T20:02:42;8.10;;;2.20;;
16975;SDS011;8604;48.148;-1.786;2023-04-01T20:06:04;6.53;;;1.80;;
16975;SDS011;8604;48.148;-1.786;2023-04-01T20:08:45;5.33;;;1.53;;
16975;SDS011;8604;48.148;-1.786;2023-04-01T20:11:21;7.27;;;2.17;;
16975;SDS011;8604;48.148;-1.786;2023-04-01T20:14:16;5.47;;;1.90;;
16975;SDS011;8604;48.148;-1.786;2023-04-01T20:17:13;7.50;;;2.10;;
16975;SDS011;8604;48.148;-1.786;2023-04-01T20:19:50;5.67;;;1.90;;
16975;SDS011;8604;48.148;-1.786;2023-04-01T20:22:27;6.50;;;2.13;;
16975;SDS011;8604;48.148;-1.786;2023-04-01T20:25:05;5.27;;;1.70;;
16975;SDS011;8604;48.148;-1.786;2023-04-01T20:27:44;10.00;;;2.00;;
16975;SDS011;8604;48.148;-1.786;2023-04-01T20:33:25;6.20;;;1.83;;
16975;SDS011;8604;48.148;-1.786;2023-04-01T20:36:19;6.63;;;1.70;;
16975;SDS011;8604;48.148;-1.786;2023-04-01T20:45:00;9.70;;;2.03;;
16975;SDS011;8604;48.148;-1.786;2023-04-01T20:47:51;7.93;;;2.07;;
16975;SDS011;8604;48.148;-1.786;2023-04-01T20:51:12;8.20;;;2.20;;
16975;SDS011;8604;48.148;-1.786;2023-04-01T20:54:21;7.57;;;1.90;;
16975;SDS011;8604;48.148;-1.786;2023-04-01T20:57:05;8.40;;;1.83;;
16975;SDS011;8604;48.148;-1.786;2023-04-01T21:12:47;8.50;;;2.00;;
16975;SDS011;8604;48.148;-1.786;2023-04-01T21:15:35;8.60;;;2.20;;
16975;SDS011;8604;48.148;-1.786;2023-04-01T21:18:34;12.07;;;2.30;;
16975;SDS011;8604;48.148;-1.786;2023-04-01T21:34:52;6.67;;;2.60;;
16975;SDS011;8604;48.148;-1.786;2023-04-01T21:43:49;8.03;;;2.70;;
16975;SDS011;8604;48.148;-1.786;2023-04-01T21:49:51;7.87;;;2.70;;
16975;SDS011;8604;48.148;-1.786;2023-04-01T21:55:44;9.53;;;2.93;;
16975;SDS011;8604;48.148;-1.786;2023-04-01T21:58:39;11.03;;;3.03;;
16975;SDS011;8604;48.148;-1.786;2023-04-01T22:01:31;9.67;;;3.00;;
16975;SDS011;8604;48.148;-1.786;2023-04-01T22:07:15;11.37;;;3.00;;
16975;SDS011;8604;48.148;-1.786;2023-04-01T22:09:48;11.07;;;3.10;;
16975;SDS011;8604;48.148;-1.786;2023-04-01T22:12:24;10.37;;;3.00;;
16975;SDS011;8604;48.148;-1.786;2023-04-01T22:15:02;8.03;;;2.70;;
16975;SDS011;8604;48.148;-1.786;2023-04-01T22:17:45;11.50;;;2.93;;
16975;SDS011;8604;48.148;-1.786;2023-04-01T22:20:21;10.13;;;3.40;;
16975;SDS011;8604;48.148;-1.786;2023-04-01T22:23:06;11.60;;;3.20;;
16975;SDS011;8604;48.148;-1.786;2023-04-01T22:25:43;10.87;;;3.43;;
16975;SDS011;8604;48.148;-1.786;2023-04-01T22:28:16;12.50;;;3.37;;
16975;SDS011;8604;48.148;-1.786;2023-04-01T22:30:50;10.77;;;3.40;;
16975;SDS011;8604;48.148;-1.786;2023-04-01T22:33:21;13.73;;;3.73;;
16975;SDS011;8604;48.148;-1.786;2023-04-01T22:36:02;9.77;;;3.20;;
16975;SDS011;8604;48.148;-1.786;2023-04-01T22:38:44;9.43;;;3.40;;
16975;SDS011;8604;48.148;-1.786;2023-04-01T22:41:31;9.80;;;3.33;;
16975;SDS011;8604;48.148;-1.786;2023-04-01T22:44:15;12.23;;;3.67;;
16975;SDS011;8604;48.148;-1.786;2023-04-01T22:46:59;10.77;;;3.10;;
16975;SDS011;8604;48.148;-1.786;2023-04-01T22:49:35;11.67;;;3.50;;
16975;SDS011;8604;48.148;-1.786;2023-04-01T22:52:08;12.13;;;3.30;;
16975;SDS011;8604;48.148;-1.786;2023-04-01T22:54:45;11.70;;;3.50;;
16975;SDS011;8604;48.148;-1.786;2023-04-01T23:00:05;11.93;;;3.60;;
16975;SDS011;8604;48.148;-1.786;2023-04-01T23:02:42;9.93;;;3.07;;
16975;SDS011;8604;48.148;-1.786;2023-04-01T23:05:15;9.33;;;3.50;;
16975;SDS011;8604;48.148;-1.786;2023-04-01T23:07:50;11.53;;;3.33;;
16975;SDS011;8604;48.148;-1.786;2023-04-01T23:10:26;11.33;;;3.30;;
16975;SDS011;8604;48.148;-1.786;2023-04-01T23:13:00;12.97;;;4.50;;
16975;SDS011;8604;48.148;-1.786;2023-04-01T23:15:32;11.90;;;4.00;;
16975;SDS011;8604;48.148;-1.786;2023-04-01T23:18:04;11.63;;;4.53;;
16975;SDS011;8604;48.148;-1.786;2023-04-01T23:23:38;10.77;;;4.43;;
16975;SDS011;8604;48.148;-1.786;2023-04-01T23:26:17;12.37;;;4.00;;
16975;SDS011;8604;48.148;-1.786;2023-04-01T23:28:49;14.73;;;4.30;;
16975;SDS011;8604;48.148;-1.786;2023-04-01T23:31:32;14.47;;;4.63;;
16975;SDS011;8604;48.148;-1.786;2023-04-01T23:34:22;14.83;;;4.37;;
16975;SDS011;8604;48.148;-1.786;2023-04-01T23:37:02;13.27;;;4.20;;
16975;SDS011;8604;48.148;-1.786;2023-04-01T23:39:39;16.30;;;4.73;;
16975;SDS011;8604;48.148;-1.786;2023-04-01T23:42:13;11.60;;;4.47;;
16975;SDS011;8604;48.148;-1.786;2023-04-01T23:44:47;14.27;;;4.73;;
16975;SDS011;8604;48.148;-1.786;2023-04-01T23:47:18;14.37;;;4.53;;
16975;SDS011;8604;48.148;-1.786;2023-04-01T23:49:50;18.00;;;5.03;;
16975;SDS011;8604;48.148;-1.786;2023-04-01T23:52:22;13.20;;;4.60;;
16975;SDS011;8604;48.148;-1.786;2023-04-01T23:54:53;15.47;;;4.30;;
16975;SDS011;8604;48.148;-1.786;2023-04-01T23:57:28;11.27;;;4.60;;
